sensor_id;sensor_type;location;lat;lon;timestamp;P1;durP1;ratioP1;P2;durP2;ratioP2
74788;SDS011;63313;48.258;12.518;2022-10-16T00:02:29;11.54;;;5.32;;
74788;SDS011;63313;48.258;12.518;2022-10-16T00:07:56;8.15;;;5.3100000000000005;;
74788;SDS011;63313;48.258;12.518;2022-10-16T00:13:23;12.569999999999999;;;5.199999999999999;;
74788;SDS011;63313;48.258;12.518;2022-10-16T00:18:50;9.610000000000001;;;5.140000000000001;;
74788;SDS011;63313;48.258;12.518;2022-10-16T00:24:18;8.370000000000001;;;4.61;;
74788;SDS011;63313;48.258;12.518;2022-10-16T00:29:45;10.8;;;5.199999999999999;;
74788;SDS011;63313;48.258;12.518;2022-10-16T00:35:16;12.52;;;6.62;;
74788;SDS011;63313;48.258;12.518;2022-10-16T00:40:43;13.929999999999998;;;6.58;;
74788;SDS011;63313;48.258;12.518;2022-10-16T00:46:12;11.42;;;6.9;;
74788;SDS011;63313;48.258;12.518;2022-10-16T00:51:41;14.1;;;7.08;;
74788;SDS011;63313;48.258;12.518;2022-10-16T00:57:08;15.75;;;7.33;;
74788;SDS011;63313;48.258;12.518;2022-10-16T01:02:36;14.14;;;7.38;;
74788;SDS011;63313;48.258;12.518;2022-10-16T01:08:04;14.040000000000001;;;7.07;;
74788;SDS011;63313;48.258;12.518;2022-10-16T01:13:35;14.0;;;6.44;;
74788;SDS011;63313;48.258;12.518;2022-10-16T01:19:07;10.95;;;6.5200000000000005;;
74788;SDS011;63313;48.258;12.518;2022-10-16T01:24:37;10.650000000000002;;;6.159999999999999;;
74788;SDS011;63313;48.258;12.518;2022-10-16T01:30:07;13.39;;;6.3;;
74788;SDS011;63313;48.258;12.518;2022-10-16T01:35:37;13.75;;;5.680000000000001;;
74788;SDS011;63313;48.258;12.518;2022-10-16T01:41:07;10.5;;;5.470000000000001;;
74788;SDS011;63313;48.258;12.518;2022-10-16T01:46:35;8.73;;;5.4300000000000015;;
74788;SDS011;63313;48.258;12.518;2022-10-16T01:52:05;11.07;;;5.24;;
74788;SDS011;63313;48.258;12.518;2022-10-16T01:57:33;7.910000000000001;;;4.869999999999999;;
74788;SDS011;63313;48.258;12.518;2022-10-16T02:03:01;9.290000000000001;;;4.949999999999999;;
74788;SDS011;63313;48.258;12.518;2022-10-16T02:08:28;7.2;;;4.749999999999999;;
74788;SDS011;63313;48.258;12.518;2022-10-16T02:13:58;7.140000000000001;;;4.97;;
74788;SDS011;63313;48.258;12.518;2022-10-16T02:19:27;10.59;;;5.470000000000001;;
74788;SDS011;63313;48.258;12.518;2022-10-16T02:24:56;6.410000000000001;;;4.23;;
74788;SDS011;63313;48.258;12.518;2022-10-16T02:30:25;7.1;;;4.220000000000001;;
74788;SDS011;63313;48.258;12.518;2022-10-16T02:35:54;10.09;;;4.0600000000000005;;
74788;SDS011;63313;48.258;12.518;2022-10-16T02:41:22;5.77;;;3.88;;
74788;SDS011;63313;48.258;12.518;2022-10-16T02:46:50;10.540000000000001;;;4.79;;
74788;SDS011;63313;48.258;12.518;2022-10-16T02:52:17;8.39;;;3.9599999999999995;;
74788;SDS011;63313;48.258;12.518;2022-10-16T02:57:44;7.2;;;3.789999999999999;;
74788;SDS011;63313;48.258;12.518;2022-10-16T03:03:11;5.699999999999999;;;4.16;;
74788;SDS011;63313;48.258;12.518;2022-10-16T03:08:38;14.180000000000001;;;6.8;;
74788;SDS011;63313;48.258;12.518;2022-10-16T03:14:05;13.65;;;8.98;;
74788;SDS011;63313;48.258;12.518;2022-10-16T03:19:32;9.4;;;7.1899999999999995;;
74788;SDS011;63313;48.258;12.518;2022-10-16T03:25:00;13.24;;;7.340000000000001;;
74788;SDS011;63313;48.258;12.518;2022-10-16T03:30:27;11.33;;;5.910000000000001;;
74788;SDS011;63313;48.258;12.518;2022-10-16T03:35:54;10.569999999999999;;;6.45;;
74788;SDS011;63313;48.258;12.518;2022-10-16T03:41:21;21.880000000000003;;;7.659999999999999;;
74788;SDS011;63313;48.258;12.518;2022-10-16T03:46:48;16.71;;;8.459999999999999;;
74788;SDS011;63313;48.258;12.518;2022-10-16T03:52:15;20.66;;;11.16;;
74788;SDS011;63313;48.258;12.518;2022-10-16T03:57:42;25.270000000000003;;;10.510000000000002;;
74788;SDS011;63313;48.258;12.518;2022-10-16T04:03:09;19.21;;;8.999999999999998;;
74788;SDS011;63313;48.258;12.518;2022-10-16T04:08:36;19.990000000000002;;;10.3;;
74788;SDS011;63313;48.258;12.518;2022-10-16T04:14:04;19.33;;;8.660000000000002;;
74788;SDS011;63313;48.258;12.518;2022-10-16T04:19:31;13.55;;;7.1;;
74788;SDS011;63313;48.258;12.518;2022-10-16T04:24:58;14.05;;;7.68;;
74788;SDS011;63313;48.258;12.518;2022-10-16T04:30:25;14.7;;;8.75;;
74788;SDS011;63313;48.258;12.518;2022-10-16T04:35:56;20.970000000000002;;;9.77;;
74788;SDS011;63313;48.258;12.518;2022-10-16T04:41:23;14.790000000000003;;;8.74;;
74788;SDS011;63313;48.258;12.518;2022-10-16T04:46:50;10.89;;;6.85;;
74788;SDS011;63313;48.258;12.518;2022-10-16T04:52:17;9.72;;;6.489999999999999;;
74788;SDS011;63313;48.258;12.518;2022-10-16T04:57:44;9.01;;;6.039999999999999;;
74788;SDS011;63313;48.258;12.518;2022-10-16T05:03:11;12.07;;;6.6899999999999995;;
74788;SDS011;63313;48.258;12.518;2022-10-16T05:08:38;8.739999999999998;;;6.359999999999999;;
74788;SDS011;63313;48.258;12.518;2022-10-16T05:14:05;13.62;;;7.15;;
74788;SDS011;63313;48.258;12.518;2022-10-16T05:19:32;11.55;;;6.6899999999999995;;
74788;SDS011;63313;48.258;12.518;2022-10-16T05:24:59;21.279999999999998;;;9.65;;
74788;SDS011;63313;48.258;12.518;2022-10-16T05:30:27;23.59;;;12.510000000000002;;
74788;SDS011;63313;48.258;12.518;2022-10-16T05:35:54;27.48;;;12.370000000000001;;
74788;SDS011;63313;48.258;12.518;2022-10-16T05:41:21;27.65;;;14.319999999999999;;
74788;SDS011;63313;48.258;12.518;2022-10-16T05:46:48;24.53;;;12.280000000000001;;
74788;SDS011;63313;48.258;12.518;2022-10-16T05:52:15;18.59;;;11.2;;
74788;SDS011;63313;48.258;12.518;2022-10-16T05:57:42;16.81;;;8.96;;
74788;SDS011;63313;48.258;12.518;2022-10-16T06:03:09;11.229999999999999;;;6.68;;
74788;SDS011;63313;48.258;12.518;2022-10-16T06:08:36;13.319999999999999;;;6.840000000000001;;
74788;SDS011;63313;48.258;12.518;2022-10-16T06:14:03;6.590000000000001;;;4.65;;
74788;SDS011;63313;48.258;12.518;2022-10-16T06:19:30;10.35;;;3.95;;
74788;SDS011;63313;48.258;12.518;2022-10-16T06:24:57;4.3;;;3.21;;
74788;SDS011;63313;48.258;12.518;2022-10-16T06:30:24;8.85;;;3.75;;
74788;SDS011;63313;48.258;12.518;2022-10-16T06:35:52;6.07;;;3.63;;
74788;SDS011;63313;48.258;12.518;2022-10-16T06:41:19;5.5;;;3.69;;
74788;SDS011;63313;48.258;12.518;2022-10-16T06:46:46;14.84;;;8.889999999999999;;
74788;SDS011;63313;48.258;12.518;2022-10-16T06:52:13;15.75;;;8.989999999999998;;
74788;SDS011;63313;48.258;12.518;2022-10-16T06:57:40;13.920000000000002;;;7.85;;
74788;SDS011;63313;48.258;12.518;2022-10-16T07:03:08;12.85;;;6.119999999999999;;
74788;SDS011;63313;48.258;12.518;2022-10-16T07:08:36;8.0;;;5.98;;
74788;SDS011;63313;48.258;12.518;2022-10-16T07:14:03;8.59;;;5.47;;
74788;SDS011;63313;48.258;12.518;2022-10-16T07:19:30;4.87;;;4.05;;
74788;SDS011;63313;48.258;12.518;2022-10-16T07:24:57;4.930000000000001;;;3.35;;
74788;SDS011;63313;48.258;12.518;2022-10-16T07:30:24;8.66;;;2.92;;
74788;SDS011;63313;48.258;12.518;2022-10-16T07:35:52;4.119999999999999;;;3.1;;
74788;SDS011;63313;48.258;12.518;2022-10-16T07:41:20;5.01;;;2.81;;
74788;SDS011;63313;48.258;12.518;2022-10-16T07:46:47;7.1;;;2.85;;
74788;SDS011;63313;48.258;12.518;2022-10-16T07:52:14;3.69;;;2.9;;
74788;SDS011;63313;48.258;12.518;2022-10-16T07:57:41;7.85;;;3.3600000000000003;;
74788;SDS011;63313;48.258;12.518;2022-10-16T08:03:08;7.08;;;3.8200000000000003;;
74788;SDS011;63313;48.258;12.518;2022-10-16T08:08:35;11.24;;;3.6;;
74788;SDS011;63313;48.258;12.518;2022-10-16T08:14:02;8.5;;;3.96;;
74788;SDS011;63313;48.258;12.518;2022-10-16T08:19:29;6.9;;;3.6300000000000003;;
74788;SDS011;63313;48.258;12.518;2022-10-16T08:24:56;4.749999999999999;;;3.28;;
74788;SDS011;63313;48.258;12.518;2022-10-16T08:30:24;3.0100000000000002;;;2.7;;
74788;SDS011;63313;48.258;12.518;2022-10-16T08:35:51;4.039999999999999;;;2.3599999999999994;;
74788;SDS011;63313;48.258;12.518;2022-10-16T08:41:22;3.7;;;2.0600000000000005;;
74788;SDS011;63313;48.258;12.518;2022-10-16T08:46:51;4.91;;;2.1100000000000003;;
74788;SDS011;63313;48.258;12.518;2022-10-16T08:52:25;4.54;;;2.07;;
74788;SDS011;63313;48.258;12.518;2022-10-16T08:57:55;7.6800000000000015;;;2.35;;
74788;SDS011;63313;48.258;12.518;2022-10-16T09:03:24;4.3;;;1.7600000000000002;;
74788;SDS011;63313;48.258;12.518;2022-10-16T09:08:57;9.08;;;1.8199999999999998;;
74788;SDS011;63313;48.258;12.518;2022-10-16T09:14:34;1.9300000000000002;;;1.6800000000000002;;
74788;SDS011;63313;48.258;12.518;2022-10-16T09:20:13;2.7700000000000005;;;1.57;;
74788;SDS011;63313;48.258;12.518;2022-10-16T09:25:44;4.65;;;1.55;;
74788;SDS011;63313;48.258;12.518;2022-10-16T09:31:13;5.24;;;1.8599999999999999;;
74788;SDS011;63313;48.258;12.518;2022-10-16T09:36:43;1.4200000000000002;;;1.2700000000000002;;
74788;SDS011;63313;48.258;12.518;2022-10-16T09:42:11;2.3099999999999996;;;1.4300000000000002;;
74788;SDS011;63313;48.258;12.518;2022-10-16T09:47:40;2.17;;;1.46;;
74788;SDS011;63313;48.258;12.518;2022-10-16T09:53:10;2.56;;;1.73;;
74788;SDS011;63313;48.258;12.518;2022-10-16T09:58:38;2.39;;;1.3900000000000001;;
74788;SDS011;63313;48.258;12.518;2022-10-16T10:04:05;4.970000000000001;;;1.6099999999999999;;
74788;SDS011;63313;48.258;12.518;2022-10-16T10:09:33;2.0;;;1.43;;
74788;SDS011;63313;48.258;12.518;2022-10-16T10:15:03;2.6700000000000004;;;1.5399999999999998;;
74788;SDS011;63313;48.258;12.518;2022-10-16T10:20:32;4.930000000000001;;;1.72;;
74788;SDS011;63313;48.258;12.518;2022-10-16T10:26:01;6.890000000000001;;;1.5499999999999998;;
74788;SDS011;63313;48.258;12.518;2022-10-16T10:31:33;1.54;;;1.46;;
74788;SDS011;63313;48.258;12.518;2022-10-16T10:37:04;2.4400000000000004;;;1.5;;
74788;SDS011;63313;48.258;12.518;2022-10-16T10:42:36;3.1599999999999997;;;1.39;;
74788;SDS011;63313;48.258;12.518;2022-10-16T10:48:12;5.159999999999999;;;1.32;;
74788;SDS011;63313;48.258;12.518;2022-10-16T10:53:47;3.6700000000000004;;;1.37;;
74788;SDS011;63313;48.258;12.518;2022-10-16T10:59:28;2.34;;;2.19;;
74788;SDS011;63313;48.258;12.518;2022-10-16T11:05:13;28.420000000000005;;;25.559999999999995;;
74788;SDS011;63313;48.258;12.518;2022-10-16T11:10:47;5.77;;;4.760000000000001;;
74788;SDS011;63313;48.258;12.518;2022-10-16T11:16:17;2.17;;;1.37;;
74788;SDS011;63313;48.258;12.518;2022-10-16T11:21:46;2.76;;;2.22;;
74788;SDS011;63313;48.258;12.518;2022-10-16T11:27:16;1.32;;;1.2000000000000002;;
74788;SDS011;63313;48.258;12.518;2022-10-16T11:32:49;2.01;;;1.8400000000000003;;
74788;SDS011;63313;48.258;12.518;2022-10-16T11:38:21;3.3299999999999996;;;1.29;;
74788;SDS011;63313;48.258;12.518;2022-10-16T11:43:53;6.01;;;1.13;;
74788;SDS011;63313;48.258;12.518;2022-10-16T11:49:22;3.1499999999999995;;;1.89;;
74788;SDS011;63313;48.258;12.518;2022-10-16T11:54:51;2.6800000000000006;;;1.05;;
74788;SDS011;63313;48.258;12.518;2022-10-16T12:00:21;5.889999999999999;;;1.95;;
74788;SDS011;63313;48.258;12.518;2022-10-16T12:05:52;3.7600000000000002;;;1.49;;
74788;SDS011;63313;48.258;12.518;2022-10-16T12:11:23;4.46;;;1.58;;
74788;SDS011;63313;48.258;12.518;2022-10-16T12:16:52;2.9299999999999997;;;1.2900000000000003;;
74788;SDS011;63313;48.258;12.518;2022-10-16T12:22:19;4.5600000000000005;;;1.41;;
74788;SDS011;63313;48.258;12.518;2022-10-16T12:27:52;1.6199999999999999;;;1.31;;
74788;SDS011;63313;48.258;12.518;2022-10-16T12:33:21;1.29;;;1.23;;
74788;SDS011;63313;48.258;12.518;2022-10-16T12:38:49;4.299999999999999;;;1.39;;
74788;SDS011;63313;48.258;12.518;2022-10-16T12:44:21;1.97;;;1.15;;
74788;SDS011;63313;48.258;12.518;2022-10-16T12:49:51;1.3800000000000001;;;1.32;;
74788;SDS011;63313;48.258;12.518;2022-10-16T12:55:20;1.01;;;0.8400000000000001;;
74788;SDS011;63313;48.258;12.518;2022-10-16T13:00:49;2.1599999999999997;;;0.9400000000000001;;
74788;SDS011;63313;48.258;12.518;2022-10-16T13:06:20;2.05;;;1.1199999999999997;;
74788;SDS011;63313;48.258;12.518;2022-10-16T13:11:54;2.17;;;1.2499999999999998;;
74788;SDS011;63313;48.258;12.518;2022-10-16T13:17:25;2.53;;;1.2900000000000003;;
74788;SDS011;63313;48.258;12.518;2022-10-16T13:23:00;2.09;;;1.1;;
74788;SDS011;63313;48.258;12.518;2022-10-16T13:28:30;2.4400000000000004;;;1.0;;
74788;SDS011;63313;48.258;12.518;2022-10-16T13:33:58;3.02;;;1.1999999999999997;;
74788;SDS011;63313;48.258;12.518;2022-10-16T13:39:27;4.7700000000000005;;;1.2600000000000002;;
74788;SDS011;63313;48.258;12.518;2022-10-16T13:44:54;2.2899999999999996;;;1.23;;
74788;SDS011;63313;48.258;12.518;2022-10-16T13:50:22;2.1799999999999997;;;1.39;;
74788;SDS011;63313;48.258;12.518;2022-10-16T13:55:49;0.8400000000000001;;;0.8400000000000001;;
74788;SDS011;63313;48.258;12.518;2022-10-16T14:01:16;2.54;;;1.24;;
74788;SDS011;63313;48.258;12.518;2022-10-16T14:06:45;1.85;;;1.19;;
74788;SDS011;63313;48.258;12.518;2022-10-16T14:12:12;1.7200000000000002;;;1.2399999999999998;;
74788;SDS011;63313;48.258;12.518;2022-10-16T14:17:42;2.07;;;1.28;;
74788;SDS011;63313;48.258;12.518;2022-10-16T14:23:19;1.4600000000000002;;;1.1199999999999999;;
74788;SDS011;63313;48.258;12.518;2022-10-16T14:28:47;1.7799999999999998;;;1.0299999999999998;;
74788;SDS011;63313;48.258;12.518;2022-10-16T14:34:23;3.81;;;1.2200000000000002;;
74788;SDS011;63313;48.258;12.518;2022-10-16T14:39:50;2.58;;;1.0;;
74788;SDS011;63313;48.258;12.518;2022-10-16T14:45:18;1.8699999999999999;;;1.2200000000000002;;
74788;SDS011;63313;48.258;12.518;2022-10-16T14:50:46;1.09;;;1.09;;
74788;SDS011;63313;48.258;12.518;2022-10-16T14:56:14;3.8;;;1.3900000000000001;;
74788;SDS011;63313;48.258;12.518;2022-10-16T15:01:42;2.9299999999999997;;;1.17;;
74788;SDS011;63313;48.258;12.518;2022-10-16T15:07:10;1.04;;;0.93;;
74788;SDS011;63313;48.258;12.518;2022-10-16T15:12:37;3.0799999999999996;;;1.0999999999999999;;
74788;SDS011;63313;48.258;12.518;2022-10-16T15:18:04;4.82;;;1.21;;
74788;SDS011;63313;48.258;12.518;2022-10-16T15:23:31;5.37;;;1.2500000000000002;;
74788;SDS011;63313;48.258;12.518;2022-10-16T15:28:58;1.25;;;1.0899999999999999;;
74788;SDS011;63313;48.258;12.518;2022-10-16T15:34:26;1.56;;;1.0899999999999999;;
74788;SDS011;63313;48.258;12.518;2022-10-16T15:39:53;2.9699999999999998;;;1.28;;
74788;SDS011;63313;48.258;12.518;2022-10-16T15:45:20;1.32;;;1.2600000000000002;;
74788;SDS011;63313;48.258;12.518;2022-10-16T15:50:47;3.2399999999999998;;;1.7600000000000002;;
74788;SDS011;63313;48.258;12.518;2022-10-16T15:56:14;2.85;;;2.46;;
74788;SDS011;63313;48.258;12.518;2022-10-16T16:01:41;5.090000000000001;;;1.9799999999999998;;
74788;SDS011;63313;48.258;12.518;2022-10-16T16:07:09;4.85;;;1.86;;
74788;SDS011;63313;48.258;12.518;2022-10-16T16:12:36;5.27;;;1.6199999999999999;;
74788;SDS011;63313;48.258;12.518;2022-10-16T16:18:03;3.65;;;2.0900000000000007;;
74788;SDS011;63313;48.258;12.518;2022-10-16T16:23:31;4.22;;;2.34;;
74788;SDS011;63313;48.258;12.518;2022-10-16T16:28:58;8.58;;;3.0200000000000005;;
74788;SDS011;63313;48.258;12.518;2022-10-16T16:34:25;3.71;;;2.9400000000000004;;
74788;SDS011;63313;48.258;12.518;2022-10-16T16:39:53;5.32;;;2.1100000000000003;;
74788;SDS011;63313;48.258;12.518;2022-10-16T16:45:20;5.0200000000000005;;;2.4200000000000004;;
74788;SDS011;63313;48.258;12.518;2022-10-16T16:50:47;6.039999999999999;;;2.6699999999999995;;
74788;SDS011;63313;48.258;12.518;2022-10-16T16:56:14;9.67;;;6.04;;
74788;SDS011;63313;48.258;12.518;2022-10-16T17:01:41;4.609999999999999;;;2.1900000000000004;;
74788;SDS011;63313;48.258;12.518;2022-10-16T17:07:08;6.01;;;2.7399999999999998;;
74788;SDS011;63313;48.258;12.518;2022-10-16T17:12:35;7.68;;;4.5;;
74788;SDS011;63313;48.258;12.518;2022-10-16T17:18:02;14.45;;;7.899999999999999;;
74788;SDS011;63313;48.258;12.518;2022-10-16T17:23:30;17.21;;;8.080000000000002;;
74788;SDS011;63313;48.258;12.518;2022-10-16T17:28:58;10.48;;;6.42;;
74788;SDS011;63313;48.258;12.518;2022-10-16T17:34:25;7.720000000000001;;;4.029999999999999;;
74788;SDS011;63313;48.258;12.518;2022-10-16T17:39:52;10.120000000000001;;;4.24;;
74788;SDS011;63313;48.258;12.518;2022-10-16T17:45:20;8.19;;;3.29;;
74788;SDS011;63313;48.258;12.518;2022-10-16T17:50:47;3.5100000000000002;;;2.4099999999999997;;
74788;SDS011;63313;48.258;12.518;2022-10-16T17:56:14;5.449999999999999;;;2.48;;
74788;SDS011;63313;48.258;12.518;2022-10-16T18:01:41;3.84;;;2.88;;
74788;SDS011;63313;48.258;12.518;2022-10-16T18:07:08;5.17;;;2.74;;
74788;SDS011;63313;48.258;12.518;2022-10-16T18:12:35;6.76;;;3.44;;
74788;SDS011;63313;48.258;12.518;2022-10-16T18:18:03;11.6;;;3.41;;
74788;SDS011;63313;48.258;12.518;2022-10-16T18:23:31;6.35;;;3.2300000000000004;;
74788;SDS011;63313;48.258;12.518;2022-10-16T18:28:59;6.2;;;3.38;;
74788;SDS011;63313;48.258;12.518;2022-10-16T18:34:26;3.8999999999999995;;;2.7199999999999998;;
74788;SDS011;63313;48.258;12.518;2022-10-16T18:39:53;10.25;;;3.9800000000000004;;
74788;SDS011;63313;48.258;12.518;2022-10-16T18:45:20;7.2299999999999995;;;3.0799999999999996;;
74788;SDS011;63313;48.258;12.518;2022-10-16T18:50:47;6.890000000000001;;;3.2600000000000002;;
74788;SDS011;63313;48.258;12.518;2022-10-16T18:56:15;6.989999999999999;;;2.8299999999999996;;
74788;SDS011;63313;48.258;12.518;2022-10-16T19:01:43;7.609999999999999;;;3.8000000000000007;;
74788;SDS011;63313;48.258;12.518;2022-10-16T19:07:10;13.24;;;4.31;;
74788;SDS011;63313;48.258;12.518;2022-10-16T19:12:37;4.41;;;3.660000000000001;;
74788;SDS011;63313;48.258;12.518;2022-10-16T19:18:04;8.870000000000001;;;4.1899999999999995;;
74788;SDS011;63313;48.258;12.518;2022-10-16T19:23:32;7.280000000000001;;;4.3;;
74788;SDS011;63313;48.258;12.518;2022-10-16T19:29:00;14.029999999999998;;;5.75;;
74788;SDS011;63313;48.258;12.518;2022-10-16T19:34:28;7.15;;;4.1499999999999995;;
74788;SDS011;63313;48.258;12.518;2022-10-16T19:39:55;7.05;;;3.8400000000000007;;
74788;SDS011;63313;48.258;12.518;2022-10-16T19:45:22;16.580000000000002;;;6.45;;
74788;SDS011;63313;48.258;12.518;2022-10-16T19:50:49;9.440000000000001;;;4.290000000000001;;
74788;SDS011;63313;48.258;12.518;2022-10-16T19:56:17;7.890000000000001;;;4.33;;
74788;SDS011;63313;48.258;12.518;2022-10-16T20:01:45;8.04;;;4.34;;
74788;SDS011;63313;48.258;12.518;2022-10-16T20:07:12;9.04;;;3.85;;
74788;SDS011;63313;48.258;12.518;2022-10-16T20:12:39;5.92;;;4.01;;
74788;SDS011;63313;48.258;12.518;2022-10-16T20:18:06;15.8;;;5.74;;
74788;SDS011;63313;48.258;12.518;2022-10-16T20:23:33;7.390000000000001;;;3.66;;
74788;SDS011;63313;48.258;12.518;2022-10-16T20:29:00;7.55;;;4.65;;
74788;SDS011;63313;48.258;12.518;2022-10-16T20:34:28;10.87;;;5.159999999999999;;
74788;SDS011;63313;48.258;12.518;2022-10-16T20:39:55;11.559999999999999;;;5.34;;
74788;SDS011;63313;48.258;12.518;2022-10-16T20:45:22;11.47;;;6.050000000000001;;
74788;SDS011;63313;48.258;12.518;2022-10-16T20:50:49;14.569999999999999;;;6.669999999999999;;
74788;SDS011;63313;48.258;12.518;2022-10-16T20:56:16;12.440000000000001;;;6.56;;
74788;SDS011;63313;48.258;12.518;2022-10-16T21:01:43;10.33;;;4.36;;
74788;SDS011;63313;48.258;12.518;2022-10-16T21:07:10;4.68;;;3.0799999999999996;;
74788;SDS011;63313;48.258;12.518;2022-10-16T21:12:37;4.77;;;3.4499999999999993;;
74788;SDS011;63313;48.258;12.518;2022-10-16T21:18:05;15.289999999999997;;;6.62;;
74788;SDS011;63313;48.258;12.518;2022-10-16T21:23:32;4.92;;;3.46;;
74788;SDS011;63313;48.258;12.518;2022-10-16T21:29:00;5.83;;;4.4;;
74788;SDS011;63313;48.258;12.518;2022-10-16T21:34:27;11.2;;;5.160000000000001;;
74788;SDS011;63313;48.258;12.518;2022-10-16T21:39:54;12.280000000000001;;;7.07;;
74788;SDS011;63313;48.258;12.518;2022-10-16T21:45:22;9.59;;;4.0;;
74788;SDS011;63313;48.258;12.518;2022-10-16T21:50:49;16.880000000000003;;;6.37;;
74788;SDS011;63313;48.258;12.518;2022-10-16T21:56:16;7.720000000000001;;;4.52;;
74788;SDS011;63313;48.258;12.518;2022-10-16T22:01:43;5.369999999999999;;;3.7699999999999996;;
74788;SDS011;63313;48.258;12.518;2022-10-16T22:07:11;10.43;;;5.449999999999999;;
74788;SDS011;63313;48.258;12.518;2022-10-16T22:12:38;11.94;;;4.99;;
74788;SDS011;63313;48.258;12.518;2022-10-16T22:18:05;5.8500000000000005;;;4.01;;
74788;SDS011;63313;48.258;12.518;2022-10-16T22:23:32;7.7299999999999995;;;4.36;;
74788;SDS011;63313;48.258;12.518;2022-10-16T22:28:59;6.459999999999999;;;4.8500000000000005;;
74788;SDS011;63313;48.258;12.518;2022-10-16T22:34:26;16.860000000000003;;;7.489999999999999;;
74788;SDS011;63313;48.258;12.518;2022-10-16T22:39:53;31.630000000000003;;;13.589999999999998;;
74788;SDS011;63313;48.258;12.518;2022-10-16T22:45:20;37.4;;;16.31;;
74788;SDS011;63313;48.258;12.518;2022-10-16T22:50:48;33.989999999999995;;;14.4;;
74788;SDS011;63313;48.258;12.518;2022-10-16T22:56:15;27.410000000000004;;;12.0;;
74788;SDS011;63313;48.258;12.518;2022-10-16T23:01:43;16.9;;;7.99;;
74788;SDS011;63313;48.258;12.518;2022-10-16T23:07:10;18.939999999999998;;;7.039999999999999;;
74788;SDS011;63313;48.258;12.518;2022-10-16T23:12:37;9.16;;;5.13;;
74788;SDS011;63313;48.258;12.518;2022-10-16T23:18:04;7.209999999999999;;;4.109999999999999;;
74788;SDS011;63313;48.258;12.518;2022-10-16T23:23:32;8.870000000000001;;;3.85;;
74788;SDS011;63313;48.258;12.518;2022-10-16T23:28:59;8.819999999999999;;;4.82;;
74788;SDS011;63313;48.258;12.518;2022-10-16T23:34:27;10.290000000000003;;;6.0200000000000005;;
74788;SDS011;63313;48.258;12.518;2022-10-16T23:39:54;11.2;;;5.3100000000000005;;
74788;SDS011;63313;48.258;12.518;2022-10-16T23:45:21;9.290000000000001;;;5.8500000000000005;;
74788;SDS011;63313;48.258;12.518;2022-10-16T23:50:48;10.48;;;5.500000000000001;;
74788;SDS011;63313;48.258;12.518;2022-10-16T23:56:16;6.839999999999999;;;4.819999999999999;;
